sim
Sign-in with your pilot id or email,
or register
Callsign
Passwort

Schedule Details

Flight Number: OEO2148
Departure: Nuremberg Airport (EDDN) at 04:10
Arrival: Thessaloniki International Airport (LGTS) at 06:30

Weather Information
Getting current METAR information for EDDN 252150Z 20005KT CAVOK 17/02 Q1008
Getting current METAR information for LGTS 252150Z 00000KT CAVOK 15/12 Q1020 NOSIG

Schedule Frequency

Route Map